sensor_id;sensor_type;location;lat;lon;timestamp;P1;durP1;ratioP1;P2;durP2;ratioP2
70487;SDS011;57976;48.174;16.370;2023-05-01T09:44:42;9.40;;;4.20;;
70487;SDS011;57976;48.174;16.370;2023-05-01T09:46:47;10.70;;;4.70;;
70487;SDS011;57976;48.174;16.370;2023-05-01T09:48:52;12.90;;;5.80;;
70487;SDS011;57976;48.174;16.370;2023-05-01T09:51:01;13.30;;;5.90;;
70487;SDS011;57976;48.174;16.370;2023-05-01T09:53:37;11.50;;;5.20;;
70487;SDS011;57976;48.174;16.370;2023-05-01T09:55:42;14.10;;;6.10;;
70487;SDS011;57976;48.174;16.370;2023-05-01T09:58:03;15.90;;;6.30;;
70487;SDS011;57976;48.174;16.370;2023-05-01T10:00:09;17.70;;;7.40;;
70487;SDS011;57976;48.174;16.370;2023-05-01T10:02:27;8.80;;;4.50;;
70487;SDS011;57976;48.174;16.370;2023-05-01T10:04:33;9.90;;;4.90;;
70487;SDS011;57976;48.174;16.370;2023-05-01T10:06:38;8.50;;;4.60;;
70487;SDS011;57976;48.174;16.370;2023-05-01T10:08:45;11.70;;;6.10;;
70487;SDS011;57976;48.174;16.370;2023-05-01T10:11:00;9.60;;;5.50;;
70487;SDS011;57976;48.174;16.370;2023-05-01T10:13:15;8.50;;;4.70;;
70487;SDS011;57976;48.174;16.370;2023-05-01T10:15:21;9.40;;;4.80;;
70487;SDS011;57976;48.174;16.370;2023-05-01T10:17:38;11.80;;;5.00;;
70487;SDS011;57976;48.174;16.370;2023-05-01T10:19:44;10.00;;;4.80;;
70487;SDS011;57976;48.174;16.370;2023-05-01T10:21:50;8.60;;;4.10;;
70487;SDS011;57976;48.174;16.370;2023-05-01T10:23:55;8.00;;;4.40;;
70487;SDS011;57976;48.174;16.370;2023-05-01T10:26:01;8.00;;;4.60;;
70487;SDS011;57976;48.174;16.370;2023-05-01T10:28:11;8.90;;;4.70;;
70487;SDS011;57976;48.174;16.370;2023-05-01T10:30:16;8.40;;;4.70;;
70487;SDS011;57976;48.174;16.370;2023-05-01T10:32:22;10.00;;;5.80;;
70487;SDS011;57976;48.174;16.370;2023-05-01T10:34:30;8.70;;;4.80;;
70487;SDS011;57976;48.174;16.370;2023-05-01T10:36:38;9.20;;;4.30;;
70487;SDS011;57976;48.174;16.370;2023-05-01T10:38:47;9.50;;;4.40;;
70487;SDS011;57976;48.174;16.370;2023-05-01T10:40:52;7.60;;;4.40;;
70487;SDS011;57976;48.174;16.370;2023-05-01T10:43:13;8.00;;;4.30;;
70487;SDS011;57976;48.174;16.370;2023-05-01T10:45:28;9.20;;;4.10;;
70487;SDS011;57976;48.174;16.370;2023-05-01T10:47:44;7.70;;;4.30;;
70487;SDS011;57976;48.174;16.370;2023-05-01T10:50:02;8.70;;;4.30;;
70487;SDS011;57976;48.174;16.370;2023-05-01T10:52:08;8.00;;;4.50;;
70487;SDS011;57976;48.174;16.370;2023-05-01T10:54:23;8.40;;;4.70;;
70487;SDS011;57976;48.174;16.370;2023-05-01T10:56:41;10.10;;;4.70;;
70487;SDS011;57976;48.174;16.370;2023-05-01T10:58:56;6.80;;;3.90;;
70487;SDS011;57976;48.174;16.370;2023-05-01T11:03:34;9.20;;;4.10;;
70487;SDS011;57976;48.174;16.370;2023-05-01T11:10:32;6.50;;;3.70;;
70487;SDS011;57976;48.174;16.370;2023-05-01T11:12:50;9.20;;;3.80;;
70487;SDS011;57976;48.174;16.370;2023-05-01T11:15:02;6.20;;;3.50;;
70487;SDS011;57976;48.174;16.370;2023-05-01T11:17:08;6.50;;;3.40;;
70487;SDS011;57976;48.174;16.370;2023-05-01T11:21:49;7.50;;;3.40;;
70487;SDS011;57976;48.174;16.370;2023-05-01T11:23:54;7.90;;;3.30;;
70487;SDS011;57976;48.174;16.370;2023-05-01T11:26:02;7.10;;;3.30;;
70487;SDS011;57976;48.174;16.370;2023-05-01T11:28:07;7.00;;;3.50;;
70487;SDS011;57976;48.174;16.370;2023-05-01T11:30:14;7.00;;;3.20;;
70487;SDS011;57976;48.174;16.370;2023-05-01T11:32:19;6.70;;;3.30;;
70487;SDS011;57976;48.174;16.370;2023-05-01T11:34:28;6.10;;;3.00;;
70487;SDS011;57976;48.174;16.370;2023-05-01T11:36:47;7.10;;;3.40;;
70487;SDS011;57976;48.174;16.370;2023-05-01T11:38:54;5.90;;;3.20;;
70487;SDS011;57976;48.174;16.370;2023-05-01T11:41:01;6.20;;;3.20;;
70487;SDS011;57976;48.174;16.370;2023-05-01T11:43:06;6.70;;;3.10;;
70487;SDS011;57976;48.174;16.370;2023-05-01T11:45:12;6.70;;;2.80;;
70487;SDS011;57976;48.174;16.370;2023-05-01T11:47:17;7.10;;;3.50;;
70487;SDS011;57976;48.174;16.370;2023-05-01T11:49:26;5.80;;;2.90;;
70487;SDS011;57976;48.174;16.370;2023-05-01T11:51:31;6.10;;;2.70;;
70487;SDS011;57976;48.174;16.370;2023-05-01T11:53:36;5.90;;;2.90;;
70487;SDS011;57976;48.174;16.370;2023-05-01T11:55:42;7.10;;;3.10;;
70487;SDS011;57976;48.174;16.370;2023-05-01T11:57:48;7.80;;;3.40;;
70487;SDS011;57976;48.174;16.370;2023-05-01T11:59:54;6.00;;;3.00;;
70487;SDS011;57976;48.174;16.370;2023-05-01T12:01:59;5.50;;;2.80;;
70487;SDS011;57976;48.174;16.370;2023-05-01T12:04:04;6.10;;;2.80;;
70487;SDS011;57976;48.174;16.370;2023-05-01T12:06:10;5.40;;;2.60;;
70487;SDS011;57976;48.174;16.370;2023-05-01T12:08:16;6.50;;;2.90;;
70487;SDS011;57976;48.174;16.370;2023-05-01T12:10:22;6.20;;;3.00;;
70487;SDS011;57976;48.174;16.370;2023-05-01T12:12:28;11.80;;;8.40;;
70487;SDS011;57976;48.174;16.370;2023-05-01T12:14:33;14.60;;;11.00;;
70487;SDS011;57976;48.174;16.370;2023-05-01T12:16:38;6.10;;;3.40;;
70487;SDS011;57976;48.174;16.370;2023-05-01T12:18:44;5.60;;;2.90;;
70487;SDS011;57976;48.174;16.370;2023-05-01T12:20:49;6.20;;;3.20;;
70487;SDS011;57976;48.174;16.370;2023-05-01T12:22:55;6.80;;;3.00;;
70487;SDS011;57976;48.174;16.370;2023-05-01T12:25:01;6.30;;;2.90;;
70487;SDS011;57976;48.174;16.370;2023-05-01T12:27:07;6.60;;;3.10;;
70487;SDS011;57976;48.174;16.370;2023-05-01T12:29:13;6.60;;;2.80;;
70487;SDS011;57976;48.174;16.370;2023-05-01T12:31:18;5.40;;;2.60;;
70487;SDS011;57976;48.174;16.370;2023-05-01T12:33:23;6.00;;;2.80;;
70487;SDS011;57976;48.174;16.370;2023-05-01T12:35:29;6.30;;;3.20;;
70487;SDS011;57976;48.174;16.370;2023-05-01T12:37:34;6.20;;;2.90;;
70487;SDS011;57976;48.174;16.370;2023-05-01T12:39:41;7.30;;;2.90;;
70487;SDS011;57976;48.174;16.370;2023-05-01T12:41:46;5.90;;;2.80;;
70487;SDS011;57976;48.174;16.370;2023-05-01T12:43:52;5.50;;;2.70;;
70487;SDS011;57976;48.174;16.370;2023-05-01T12:45:57;6.00;;;2.90;;
70487;SDS011;57976;48.174;16.370;2023-05-01T12:48:02;5.80;;;3.00;;
70487;SDS011;57976;48.174;16.370;2023-05-01T12:50:13;6.20;;;2.90;;
70487;SDS011;57976;48.174;16.370;2023-05-01T12:52:24;7.30;;;3.30;;
70487;SDS011;57976;48.174;16.370;2023-05-01T12:54:30;5.80;;;3.20;;
70487;SDS011;57976;48.174;16.370;2023-05-01T12:56:36;7.00;;;2.80;;
70487;SDS011;57976;48.174;16.370;2023-05-01T12:58:42;6.50;;;2.70;;
70487;SDS011;57976;48.174;16.370;2023-05-01T13:00:48;6.50;;;3.00;;
70487;SDS011;57976;48.174;16.370;2023-05-01T13:02:54;6.60;;;3.00;;
70487;SDS011;57976;48.174;16.370;2023-05-01T13:05:08;6.20;;;2.70;;
70487;SDS011;57976;48.174;16.370;2023-05-01T13:07:14;6.00;;;2.60;;
70487;SDS011;57976;48.174;16.370;2023-05-01T13:09:20;7.20;;;2.80;;
70487;SDS011;57976;48.174;16.370;2023-05-01T13:11:26;5.70;;;2.90;;
70487;SDS011;57976;48.174;16.370;2023-05-01T13:13:32;6.10;;;2.90;;
70487;SDS011;57976;48.174;16.370;2023-05-01T13:15:38;6.10;;;3.00;;
70487;SDS011;57976;48.174;16.370;2023-05-01T13:17:43;5.80;;;2.90;;
70487;SDS011;57976;48.174;16.370;2023-05-01T13:19:52;6.10;;;3.00;;
70487;SDS011;57976;48.174;16.370;2023-05-01T13:21:58;8.40;;;3.00;;
70487;SDS011;57976;48.174;16.370;2023-05-01T13:24:04;6.30;;;3.00;;
70487;SDS011;57976;48.174;16.370;2023-05-01T13:26:09;5.80;;;2.60;;
70487;SDS011;57976;48.174;16.370;2023-05-01T13:28:17;6.00;;;2.60;;
70487;SDS011;57976;48.174;16.370;2023-05-01T13:30:30;6.90;;;2.80;;
70487;SDS011;57976;48.174;16.370;2023-05-01T13:32:36;7.00;;;2.80;;
70487;SDS011;57976;48.174;16.370;2023-05-01T13:34:43;6.90;;;2.90;;
70487;SDS011;57976;48.174;16.370;2023-05-01T13:36:48;6.40;;;3.30;;
70487;SDS011;57976;48.174;16.370;2023-05-01T13:38:53;6.80;;;3.40;;
70487;SDS011;57976;48.174;16.370;2023-05-01T13:40:59;6.30;;;2.70;;
70487;SDS011;57976;48.174;16.370;2023-05-01T13:43:06;6.40;;;2.90;;
70487;SDS011;57976;48.174;16.370;2023-05-01T13:45:18;6.10;;;3.10;;
70487;SDS011;57976;48.174;16.370;2023-05-01T13:47:24;6.20;;;3.10;;
70487;SDS011;57976;48.174;16.370;2023-05-01T13:49:29;5.10;;;2.60;;
70487;SDS011;57976;48.174;16.370;2023-05-01T13:51:34;5.70;;;2.60;;
70487;SDS011;57976;48.174;16.370;2023-05-01T13:53:42;5.50;;;2.60;;
70487;SDS011;57976;48.174;16.370;2023-05-01T13:55:47;6.00;;;2.70;;
70487;SDS011;57976;48.174;16.370;2023-05-01T13:57:52;5.40;;;2.70;;
70487;SDS011;57976;48.174;16.370;2023-05-01T13:59:57;5.10;;;2.70;;
70487;SDS011;57976;48.174;16.370;2023-05-01T14:02:02;6.30;;;2.80;;
70487;SDS011;57976;48.174;16.370;2023-05-01T14:04:21;6.40;;;3.20;;
70487;SDS011;57976;48.174;16.370;2023-05-01T14:06:26;6.30;;;2.80;;
70487;SDS011;57976;48.174;16.370;2023-05-01T14:08:31;5.80;;;2.90;;
70487;SDS011;57976;48.174;16.370;2023-05-01T14:10:36;7.70;;;3.00;;
70487;SDS011;57976;48.174;16.370;2023-05-01T14:12:41;6.00;;;2.80;;
70487;SDS011;57976;48.174;16.370;2023-05-01T14:14:46;7.10;;;2.90;;
70487;SDS011;57976;48.174;16.370;2023-05-01T14:16:51;5.20;;;2.60;;
70487;SDS011;57976;48.174;16.370;2023-05-01T14:18:56;6.30;;;2.90;;
70487;SDS011;57976;48.174;16.370;2023-05-01T14:21:01;6.40;;;2.70;;
70487;SDS011;57976;48.174;16.370;2023-05-01T14:23:06;6.40;;;2.80;;
70487;SDS011;57976;48.174;16.370;2023-05-01T14:25:20;5.70;;;2.70;;
70487;SDS011;57976;48.174;16.370;2023-05-01T14:27:26;5.60;;;2.60;;
70487;SDS011;57976;48.174;16.370;2023-05-01T14:29:31;6.50;;;2.80;;
70487;SDS011;57976;48.174;16.370;2023-05-01T14:31:36;8.00;;;3.80;;
70487;SDS011;57976;48.174;16.370;2023-05-01T14:33:41;6.30;;;2.90;;
70487;SDS011;57976;48.174;16.370;2023-05-01T14:35:48;6.40;;;2.70;;
70487;SDS011;57976;48.174;16.370;2023-05-01T14:37:54;7.60;;;3.80;;
70487;SDS011;57976;48.174;16.370;2023-05-01T14:39:59;6.60;;;2.90;;
70487;SDS011;57976;48.174;16.370;2023-05-01T14:42:05;5.90;;;2.70;;
70487;SDS011;57976;48.174;16.370;2023-05-01T14:44:13;6.50;;;2.90;;
70487;SDS011;57976;48.174;16.370;2023-05-01T14:46:24;8.30;;;4.80;;
70487;SDS011;57976;48.174;16.370;2023-05-01T14:48:33;6.40;;;3.20;;
70487;SDS011;57976;48.174;16.370;2023-05-01T14:50:39;5.20;;;2.70;;
70487;SDS011;57976;48.174;16.370;2023-05-01T14:52:44;6.80;;;3.10;;
70487;SDS011;57976;48.174;16.370;2023-05-01T14:54:49;6.10;;;3.00;;
70487;SDS011;57976;48.174;16.370;2023-05-01T14:56:54;5.60;;;3.00;;
70487;SDS011;57976;48.174;16.370;2023-05-01T14:58:59;6.80;;;3.00;;
70487;SDS011;57976;48.174;16.370;2023-05-01T15:01:04;6.50;;;2.50;;
70487;SDS011;57976;48.174;16.370;2023-05-01T15:03:09;5.30;;;2.70;;
70487;SDS011;57976;48.174;16.370;2023-05-01T15:05:15;6.10;;;3.00;;
70487;SDS011;57976;48.174;16.370;2023-05-01T15:07:20;8.10;;;3.00;;
70487;SDS011;57976;48.174;16.370;2023-05-01T15:09:25;6.30;;;2.80;;
70487;SDS011;57976;48.174;16.370;2023-05-01T15:11:30;6.90;;;2.80;;
70487;SDS011;57976;48.174;16.370;2023-05-01T15:13:35;6.30;;;2.60;;
70487;SDS011;57976;48.174;16.370;2023-05-01T15:15:40;6.10;;;2.90;;
70487;SDS011;57976;48.174;16.370;2023-05-01T15:17:45;6.00;;;2.80;;
70487;SDS011;57976;48.174;16.370;2023-05-01T15:19:50;6.30;;;2.70;;
70487;SDS011;57976;48.174;16.370;2023-05-01T15:21:55;6.60;;;3.00;;
70487;SDS011;57976;48.174;16.370;2023-05-01T15:24:00;6.30;;;2.90;;
70487;SDS011;57976;48.174;16.370;2023-05-01T15:26:05;6.20;;;2.90;;
70487;SDS011;57976;48.174;16.370;2023-05-01T15:28:11;6.30;;;2.90;;
70487;SDS011;57976;48.174;16.370;2023-05-01T15:30:16;7.50;;;3.20;;
70487;SDS011;57976;48.174;16.370;2023-05-01T15:32:21;6.50;;;3.10;;
70487;SDS011;57976;48.174;16.370;2023-05-01T15:34:26;6.90;;;3.10;;
70487;SDS011;57976;48.174;16.370;2023-05-01T15:36:31;5.60;;;2.80;;
70487;SDS011;57976;48.174;16.370;2023-05-01T15:38:36;6.00;;;3.00;;
70487;SDS011;57976;48.174;16.370;2023-05-01T15:40:42;5.30;;;2.50;;
70487;SDS011;57976;48.174;16.370;2023-05-01T15:42:47;5.90;;;3.00;;
70487;SDS011;57976;48.174;16.370;2023-05-01T15:44:52;6.40;;;3.10;;
70487;SDS011;57976;48.174;16.370;2023-05-01T15:46:57;5.80;;;2.60;;
70487;SDS011;57976;48.174;16.370;2023-05-01T15:49:04;5.60;;;3.00;;
70487;SDS011;57976;48.174;16.370;2023-05-01T15:51:09;6.40;;;2.80;;
70487;SDS011;57976;48.174;16.370;2023-05-01T15:53:14;7.30;;;2.50;;
70487;SDS011;57976;48.174;16.370;2023-05-01T15:55:20;6.20;;;2.60;;
70487;SDS011;57976;48.174;16.370;2023-05-01T15:57:25;6.00;;;2.80;;
70487;SDS011;57976;48.174;16.370;2023-05-01T15:59:30;7.80;;;3.50;;
70487;SDS011;57976;48.174;16.370;2023-05-01T16:01:35;5.60;;;2.70;;
70487;SDS011;57976;48.174;16.370;2023-05-01T16:03:42;5.60;;;2.60;;
70487;SDS011;57976;48.174;16.370;2023-05-01T16:05:49;6.00;;;2.80;;
70487;SDS011;57976;48.174;16.370;2023-05-01T16:07:54;6.50;;;2.50;;
70487;SDS011;57976;48.174;16.370;2023-05-01T16:10:01;5.90;;;3.10;;
70487;SDS011;57976;48.174;16.370;2023-05-01T16:12:07;6.50;;;2.90;;
70487;SDS011;57976;48.174;16.370;2023-05-01T16:14:12;6.90;;;3.10;;
70487;SDS011;57976;48.174;16.370;2023-05-01T16:16:21;7.10;;;3.20;;
70487;SDS011;57976;48.174;16.370;2023-05-01T16:18:27;7.90;;;3.30;;
70487;SDS011;57976;48.174;16.370;2023-05-01T16:20:33;5.80;;;2.90;;
70487;SDS011;57976;48.174;16.370;2023-05-01T16:22:44;6.30;;;3.10;;
70487;SDS011;57976;48.174;16.370;2023-05-01T16:24:49;7.20;;;3.10;;
70487;SDS011;57976;48.174;16.370;2023-05-01T16:26:54;9.30;;;4.50;;
70487;SDS011;57976;48.174;16.370;2023-05-01T16:29:00;6.90;;;3.80;;
70487;SDS011;57976;48.174;16.370;2023-05-01T16:31:08;6.30;;;3.00;;
70487;SDS011;57976;48.174;16.370;2023-05-01T16:33:29;6.70;;;3.30;;
70487;SDS011;57976;48.174;16.370;2023-05-01T16:35:35;6.70;;;2.80;;
70487;SDS011;57976;48.174;16.370;2023-05-01T16:37:40;7.00;;;3.00;;
70487;SDS011;57976;48.174;16.370;2023-05-01T16:39:45;6.30;;;3.00;;
70487;SDS011;57976;48.174;16.370;2023-05-01T16:41:51;5.50;;;2.70;;
70487;SDS011;57976;48.174;16.370;2023-05-01T16:43:58;6.90;;;2.90;;
70487;SDS011;57976;48.174;16.370;2023-05-01T16:46:03;5.40;;;2.60;;
70487;SDS011;57976;48.174;16.370;2023-05-01T16:48:08;5.60;;;2.60;;
70487;SDS011;57976;48.174;16.370;2023-05-01T16:50:17;6.60;;;3.10;;
70487;SDS011;57976;48.174;16.370;2023-05-01T16:52:24;5.30;;;2.50;;
70487;SDS011;57976;48.174;16.370;2023-05-01T16:54:29;7.60;;;2.80;;
70487;SDS011;57976;48.174;16.370;2023-05-01T16:56:34;6.10;;;2.70;;
70487;SDS011;57976;48.174;16.370;2023-05-01T16:58:39;6.60;;;3.30;;
70487;SDS011;57976;48.174;16.370;2023-05-01T17:00:44;6.80;;;3.10;;
70487;SDS011;57976;48.174;16.370;2023-05-01T17:02:49;6.60;;;2.80;;
70487;SDS011;57976;48.174;16.370;2023-05-01T17:04:54;6.70;;;3.20;;
70487;SDS011;57976;48.174;16.370;2023-05-01T17:07:00;6.20;;;3.20;;
70487;SDS011;57976;48.174;16.370;2023-05-01T17:09:05;6.00;;;2.80;;
70487;SDS011;57976;48.174;16.370;2023-05-01T17:11:10;6.90;;;3.90;;
70487;SDS011;57976;48.174;16.370;2023-05-01T17:13:14;6.60;;;3.20;;
70487;SDS011;57976;48.174;16.370;2023-05-01T17:15:20;8.60;;;4.80;;
70487;SDS011;57976;48.174;16.370;2023-05-01T17:17:25;10.70;;;5.80;;
70487;SDS011;57976;48.174;16.370;2023-05-01T17:19:30;5.70;;;2.50;;
70487;SDS011;57976;48.174;16.370;2023-05-01T17:21:35;5.60;;;2.60;;
70487;SDS011;57976;48.174;16.370;2023-05-01T17:23:43;5.80;;;2.80;;
70487;SDS011;57976;48.174;16.370;2023-05-01T17:25:48;5.80;;;3.00;;
70487;SDS011;57976;48.174;16.370;2023-05-01T17:27:53;5.90;;;2.80;;
70487;SDS011;57976;48.174;16.370;2023-05-01T17:29:58;5.60;;;2.80;;
70487;SDS011;57976;48.174;16.370;2023-05-01T17:32:04;6.80;;;2.80;;
70487;SDS011;57976;48.174;16.370;2023-05-01T17:34:10;6.40;;;3.00;;
70487;SDS011;57976;48.174;16.370;2023-05-01T17:36:15;6.00;;;2.80;;
70487;SDS011;57976;48.174;16.370;2023-05-01T17:38:20;6.10;;;2.50;;
70487;SDS011;57976;48.174;16.370;2023-05-01T17:40:25;6.10;;;2.80;;
70487;SDS011;57976;48.174;16.370;2023-05-01T17:42:30;6.40;;;3.00;;
70487;SDS011;57976;48.174;16.370;2023-05-01T17:44:36;6.30;;;3.10;;
70487;SDS011;57976;48.174;16.370;2023-05-01T17:46:41;6.60;;;3.00;;
70487;SDS011;57976;48.174;16.370;2023-05-01T17:48:46;6.00;;;2.60;;
70487;SDS011;57976;48.174;16.370;2023-05-01T17:50:50;6.40;;;2.80;;
70487;SDS011;57976;48.174;16.370;2023-05-01T17:52:56;6.40;;;2.70;;
70487;SDS011;57976;48.174;16.370;2023-05-01T17:55:03;5.90;;;2.80;;
70487;SDS011;57976;48.174;16.370;2023-05-01T17:57:09;6.10;;;2.60;;
70487;SDS011;57976;48.174;16.370;2023-05-01T17:59:15;6.40;;;3.10;;
70487;SDS011;57976;48.174;16.370;2023-05-01T18:01:21;6.10;;;2.60;;
70487;SDS011;57976;48.174;16.370;2023-05-01T18:03:26;7.10;;;2.80;;
70487;SDS011;57976;48.174;16.370;2023-05-01T18:05:32;6.90;;;3.00;;
70487;SDS011;57976;48.174;16.370;2023-05-01T18:07:37;8.00;;;3.20;;
70487;SDS011;57976;48.174;16.370;2023-05-01T18:09:43;6.70;;;3.30;;
70487;SDS011;57976;48.174;16.370;2023-05-01T18:11:48;7.40;;;3.30;;
70487;SDS011;57976;48.174;16.370;2023-05-01T18:13:54;6.60;;;2.90;;
70487;SDS011;57976;48.174;16.370;2023-05-01T18:16:00;6.40;;;2.90;;
70487;SDS011;57976;48.174;16.370;2023-05-01T18:18:05;6.40;;;3.00;;
70487;SDS011;57976;48.174;16.370;2023-05-01T18:20:11;5.90;;;2.70;;
70487;SDS011;57976;48.174;16.370;2023-05-01T18:22:18;5.90;;;2.80;;
70487;SDS011;57976;48.174;16.370;2023-05-01T18:24:23;6.20;;;2.80;;
70487;SDS011;57976;48.174;16.370;2023-05-01T18:26:29;6.60;;;3.10;;
70487;SDS011;57976;48.174;16.370;2023-05-01T18:28:34;6.40;;;3.20;;
70487;SDS011;57976;48.174;16.370;2023-05-01T18:30:40;6.50;;;2.90;;
70487;SDS011;57976;48.174;16.370;2023-05-01T18:32:45;5.70;;;3.00;;
70487;SDS011;57976;48.174;16.370;2023-05-01T18:34:51;7.30;;;2.90;;
70487;SDS011;57976;48.174;16.370;2023-05-01T18:36:57;6.40;;;2.90;;
70487;SDS011;57976;48.174;16.370;2023-05-01T18:39:05;7.50;;;3.00;;
70487;SDS011;57976;48.174;16.370;2023-05-01T18:41:10;6.80;;;3.10;;
70487;SDS011;57976;48.174;16.370;2023-05-01T18:43:16;6.70;;;2.90;;
70487;SDS011;57976;48.174;16.370;2023-05-01T18:45:22;6.20;;;2.90;;
70487;SDS011;57976;48.174;16.370;2023-05-01T18:47:30;7.40;;;2.80;;
70487;SDS011;57976;48.174;16.370;2023-05-01T18:49:36;7.70;;;3.50;;
70487;SDS011;57976;48.174;16.370;2023-05-01T18:51:43;6.10;;;3.00;;
70487;SDS011;57976;48.174;16.370;2023-05-01T18:53:49;6.70;;;3.00;;
70487;SDS011;57976;48.174;16.370;2023-05-01T18:55:54;6.60;;;2.70;;
70487;SDS011;57976;48.174;16.370;2023-05-01T18:57:59;7.70;;;3.00;;
70487;SDS011;57976;48.174;16.370;2023-05-01T19:00:06;5.90;;;2.90;;
70487;SDS011;57976;48.174;16.370;2023-05-01T19:02:13;7.10;;;3.00;;
70487;SDS011;57976;48.174;16.370;2023-05-01T19:04:19;6.50;;;2.80;;
70487;SDS011;57976;48.174;16.370;2023-05-01T19:06:33;6.20;;;3.00;;
70487;SDS011;57976;48.174;16.370;2023-05-01T19:08:45;7.00;;;3.00;;
70487;SDS011;57976;48.174;16.370;2023-05-01T19:10:53;7.50;;;3.20;;
70487;SDS011;57976;48.174;16.370;2023-05-01T19:12:58;5.90;;;2.70;;
70487;SDS011;57976;48.174;16.370;2023-05-01T19:15:06;7.10;;;3.00;;
70487;SDS011;57976;48.174;16.370;2023-05-01T19:17:15;6.20;;;3.00;;
70487;SDS011;57976;48.174;16.370;2023-05-01T19:19:22;6.80;;;3.00;;
70487;SDS011;57976;48.174;16.370;2023-05-01T19:21:30;6.80;;;2.90;;
70487;SDS011;57976;48.174;16.370;2023-05-01T19:23:37;6.90;;;2.90;;
70487;SDS011;57976;48.174;16.370;2023-05-01T19:25:43;6.30;;;3.10;;
70487;SDS011;57976;48.174;16.370;2023-05-01T19:27:51;6.30;;;2.90;;
70487;SDS011;57976;48.174;16.370;2023-05-01T19:29:59;6.40;;;3.00;;
70487;SDS011;57976;48.174;16.370;2023-05-01T19:32:06;6.00;;;3.00;;
70487;SDS011;57976;48.174;16.370;2023-05-01T19:34:12;6.90;;;2.80;;
70487;SDS011;57976;48.174;16.370;2023-05-01T19:36:18;6.00;;;3.00;;
70487;SDS011;57976;48.174;16.370;2023-05-01T19:38:24;6.10;;;2.90;;
70487;SDS011;57976;48.174;16.370;2023-05-01T19:40:30;6.80;;;3.20;;
70487;SDS011;57976;48.174;16.370;2023-05-01T19:42:37;7.80;;;2.90;;
70487;SDS011;57976;48.174;16.370;2023-05-01T19:44:43;6.10;;;3.00;;
70487;SDS011;57976;48.174;16.370;2023-05-01T19:46:49;6.60;;;3.00;;
70487;SDS011;57976;48.174;16.370;2023-05-01T19:48:55;7.60;;;3.00;;
70487;SDS011;57976;48.174;16.370;2023-05-01T19:51:01;7.60;;;3.10;;
70487;SDS011;57976;48.174;16.370;2023-05-01T19:53:08;6.30;;;3.30;;
70487;SDS011;57976;48.174;16.370;2023-05-01T19:55:23;6.00;;;3.00;;
70487;SDS011;57976;48.174;16.370;2023-05-01T19:57:29;6.60;;;3.20;;
70487;SDS011;57976;48.174;16.370;2023-05-01T19:59:35;6.50;;;3.10;;
70487;SDS011;57976;48.174;16.370;2023-05-01T20:01:41;6.60;;;3.10;;
70487;SDS011;57976;48.174;16.370;2023-05-01T20:03:47;8.50;;;3.30;;
70487;SDS011;57976;48.174;16.370;2023-05-01T20:05:52;7.20;;;3.20;;
70487;SDS011;57976;48.174;16.370;2023-05-01T20:07:58;7.60;;;3.50;;
70487;SDS011;57976;48.174;16.370;2023-05-01T20:10:03;6.50;;;3.40;;
70487;SDS011;57976;48.174;16.370;2023-05-01T20:12:09;7.70;;;3.20;;
70487;SDS011;57976;48.174;16.370;2023-05-01T20:14:14;7.30;;;3.50;;
70487;SDS011;57976;48.174;16.370;2023-05-01T20:16:19;7.70;;;3.30;;
70487;SDS011;57976;48.174;16.370;2023-05-01T20:18:25;7.50;;;3.40;;
70487;SDS011;57976;48.174;16.370;2023-05-01T20:20:32;7.40;;;3.60;;
70487;SDS011;57976;48.174;16.370;2023-05-01T20:22:37;7.60;;;3.60;;
70487;SDS011;57976;48.174;16.370;2023-05-01T20:24:41;7.10;;;3.50;;
70487;SDS011;57976;48.174;16.370;2023-05-01T20:26:47;8.00;;;3.80;;
70487;SDS011;57976;48.174;16.370;2023-05-01T20:28:53;8.60;;;4.10;;
70487;SDS011;57976;48.174;16.370;2023-05-01T20:30:58;7.40;;;3.70;;
70487;SDS011;57976;48.174;16.370;2023-05-01T20:33:03;7.60;;;3.80;;
70487;SDS011;57976;48.174;16.370;2023-05-01T20:35:09;7.10;;;3.90;;
70487;SDS011;57976;48.174;16.370;2023-05-01T20:37:14;8.00;;;3.80;;
70487;SDS011;57976;48.174;16.370;2023-05-01T20:39:20;7.30;;;3.90;;
70487;SDS011;57976;48.174;16.370;2023-05-01T20:41:25;7.50;;;3.90;;
70487;SDS011;57976;48.174;16.370;2023-05-01T20:43:31;8.40;;;4.30;;
70487;SDS011;57976;48.174;16.370;2023-05-01T20:45:36;8.10;;;4.40;;
70487;SDS011;57976;48.174;16.370;2023-05-01T20:47:41;8.30;;;4.40;;
70487;SDS011;57976;48.174;16.370;2023-05-01T20:49:46;8.50;;;4.00;;
70487;SDS011;57976;48.174;16.370;2023-05-01T20:51:51;8.00;;;3.90;;
70487;SDS011;57976;48.174;16.370;2023-05-01T20:53:57;8.90;;;4.20;;
70487;SDS011;57976;48.174;16.370;2023-05-01T20:56:01;8.00;;;4.20;;
70487;SDS011;57976;48.174;16.370;2023-05-01T20:58:07;8.60;;;4.20;;
70487;SDS011;57976;48.174;16.370;2023-05-01T21:00:12;7.80;;;4.20;;
70487;SDS011;57976;48.174;16.370;2023-05-01T21:02:20;8.10;;;4.40;;
70487;SDS011;57976;48.174;16.370;2023-05-01T21:04:25;8.00;;;4.50;;
70487;SDS011;57976;48.174;16.370;2023-05-01T21:06:31;8.60;;;4.70;;
70487;SDS011;57976;48.174;16.370;2023-05-01T21:08:36;8.40;;;4.40;;
70487;SDS011;57976;48.174;16.370;2023-05-01T21:10:41;8.30;;;4.50;;
70487;SDS011;57976;48.174;16.370;2023-05-01T21:12:46;8.90;;;4.90;;
70487;SDS011;57976;48.174;16.370;2023-05-01T21:14:51;7.30;;;4.20;;
70487;SDS011;57976;48.174;16.370;2023-05-01T21:16:56;7.40;;;4.30;;
70487;SDS011;57976;48.174;16.370;2023-05-01T21:19:01;8.30;;;4.20;;
70487;SDS011;57976;48.174;16.370;2023-05-01T21:21:06;8.40;;;4.40;;
70487;SDS011;57976;48.174;16.370;2023-05-01T21:23:13;7.80;;;4.10;;
70487;SDS011;57976;48.174;16.370;2023-05-01T21:25:18;9.80;;;4.70;;
70487;SDS011;57976;48.174;16.370;2023-05-01T21:27:26;7.50;;;4.20;;
70487;SDS011;57976;48.174;16.370;2023-05-01T21:29:31;8.30;;;4.30;;
70487;SDS011;57976;48.174;16.370;2023-05-01T21:31:37;7.50;;;3.90;;
70487;SDS011;57976;48.174;16.370;2023-05-01T21:33:43;8.20;;;4.30;;
70487;SDS011;57976;48.174;16.370;2023-05-01T21:35:48;7.40;;;3.90;;
70487;SDS011;57976;48.174;16.370;2023-05-01T21:37:53;7.80;;;4.20;;
70487;SDS011;57976;48.174;16.370;2023-05-01T21:39:58;8.10;;;3.90;;
70487;SDS011;57976;48.174;16.370;2023-05-01T21:42:04;7.60;;;4.20;;
70487;SDS011;57976;48.174;16.370;2023-05-01T21:44:09;9.10;;;4.30;;
70487;SDS011;57976;48.174;16.370;2023-05-01T21:46:15;8.00;;;4.20;;
70487;SDS011;57976;48.174;16.370;2023-05-01T21:48:20;9.00;;;4.70;;
70487;SDS011;57976;48.174;16.370;2023-05-01T21:50:25;8.00;;;4.20;;
70487;SDS011;57976;48.174;16.370;2023-05-01T21:52:36;8.40;;;4.10;;
70487;SDS011;57976;48.174;16.370;2023-05-01T21:54:41;7.80;;;4.20;;
70487;SDS011;57976;48.174;16.370;2023-05-01T21:56:46;7.70;;;4.20;;
70487;SDS011;57976;48.174;16.370;2023-05-01T21:58:51;8.40;;;4.50;;
70487;SDS011;57976;48.174;16.370;2023-05-01T22:01:01;7.80;;;4.10;;
70487;SDS011;57976;48.174;16.370;2023-05-01T22:03:09;8.30;;;4.30;;
70487;SDS011;57976;48.174;16.370;2023-05-01T22:05:18;7.40;;;4.10;;
70487;SDS011;57976;48.174;16.370;2023-05-01T22:07:25;8.70;;;4.00;;
70487;SDS011;57976;48.174;16.370;2023-05-01T22:09:30;8.50;;;4.30;;
70487;SDS011;57976;48.174;16.370;2023-05-01T22:11:35;8.70;;;5.00;;
70487;SDS011;57976;48.174;16.370;2023-05-01T22:13:40;7.50;;;4.20;;
70487;SDS011;57976;48.174;16.370;2023-05-01T22:15:45;8.70;;;4.40;;
70487;SDS011;57976;48.174;16.370;2023-05-01T22:17:49;8.10;;;4.30;;
70487;SDS011;57976;48.174;16.370;2023-05-01T22:19:54;8.50;;;4.10;;
70487;SDS011;57976;48.174;16.370;2023-05-01T22:22:00;7.50;;;4.20;;
70487;SDS011;57976;48.174;16.370;2023-05-01T22:24:05;9.60;;;4.60;;